ENST/SSJ METAR and TAF weather

Enter ICAO airport designator
Station Type Date Time Source
ENST METAR 2019/08/19 19:50 UTC NOAA

ENST 191950Z VRB01KT CAVOK 14/10 Q0999 RMK WIND 300FT 24005KT


Station Type Date Time Source
ENST Decoded METAR 2019/08/19 19:50 UTC NOAA

Sandnessjoen / Stokka, Norway (ENST) 65-58N 012-28E 17M
Aug 19, 2019 - 03:50 PM EDT / 2019.08.19 1950 UTC
Wind: Variable at 1 MPH (1 KT):0
Visibility: greater than 7 mile(s):0
Temperature: 57 F (14 C)
Dew Point: 50 F (10 C)
Relative Humidity: 76%
Pressure (altimeter): 29.50 in. Hg (0999 hPa)
ob: ENST 191950Z VRB01KT CAVOK 14/10 Q0999 RMK WIND 300FT 24005KT
cycle: 20

Station Type Date Time Source
ENST TAF UTC NOAA

Error!

Example: see airport list